Portada
METAR-TAF:

METAR-TAF

Aeroports :

Djibouti, Djibouti

latitud: 11-33N, longitud: 043-10E, altitud: 49 m

Observació

L'informe es va fer fa 16 hores i 37 minuts, a les 04:00 UTC
Vent calma
Temperatura 27°C
Humitat 74%
Pressió 1014 hPa
Visibilitat 10 km o més
Núvols disperses a una alçada de 2000 ft

METAR: HDAM 130400Z 00000KT 9999 SCT020 27/22 Q1014

Hora: 23:37 (20:37 UTC)

Pronòstic

L'informe es va fer fa 15 hores i 37 minuts, a les 05:00 UTC
Pronòstic vàlid del 13 a les 06 UTC al 14 a les 06 UTC
Vent 10 kt del Est amb ràfegues de 15 kt
Visibilitat 10 km o més
Núvols disperses a una alçada de 2300 ft
Evolucionant progressivament
l' 13 a les 15 UTC al 13 a les 18 UTC
Vent 5 kt amb direcció variable
Núvols disperses a una alçada de 2000 ft
Evolucionant progressivament
l' 14 a les 00 UTC al 14 a les 06 UTC
Vent kt del Nord
Núvols disperses a una alçada de 2000 ft

TAF: HDAM 130500Z 1306/1406 08010G15KT 9999 SCT023 BECMG 1315/1318 VRB05KT SCT020 BECMG 1400/1406 00000KT SCT020

Observacions i pronòstics meteorològics de més de 4000 aeroports (METAR i TAF).

Les estacions disponibles són els punts grocs i vermells al mapa.

Posi el ratolí al punt desitjat per veure el nom de l'estació.

Feu clic per veure les observacions i els pronòstics meteorològics.

Per canviar el mapa: feu clic els botons verds amb una creu de color negre per apropar; al botó verd amb un guió per allunyar la imatge; o en les fletxes verdes per a mapes adjacents.


METAR-TAF: